sensor_id;sensor_type;location;lat;lon;timestamp;temperature;humidity
58261;DHT22;44058;52.898;6.502;2022-10-31T00:00:51;13.80;99.90
58261;DHT22;44058;52.898;6.502;2022-10-31T00:03:17;13.80;99.90
58261;DHT22;44058;52.898;6.502;2022-10-31T00:05:48;13.80;99.90
58261;DHT22;44058;52.898;6.502;2022-10-31T00:08:14;13.80;99.90
58261;DHT22;44058;52.898;6.502;2022-10-31T00:10:40;13.80;99.90
58261;DHT22;44058;52.898;6.502;2022-10-31T00:13:10;13.80;99.90
58261;DHT22;44058;52.898;6.502;2022-10-31T00:15:40;13.80;99.90
58261;DHT22;44058;52.898;6.502;2022-10-31T00:18:07;13.90;99.90
58261;DHT22;44058;52.898;6.502;2022-10-31T00:20:33;13.80;99.90
58261;DHT22;44058;52.898;6.502;2022-10-31T00:23:00;13.90;99.90
58261;DHT22;44058;52.898;6.502;2022-10-31T00:25:27;13.90;99.90
58261;DHT22;44058;52.898;6.502;2022-10-31T00:27:53;13.80;99.90
58261;DHT22;44058;52.898;6.502;2022-10-31T00:30:18;13.80;99.90
58261;DHT22;44058;52.898;6.502;2022-10-31T00:32:44;13.80;99.90
58261;DHT22;44058;52.898;6.502;2022-10-31T00:35:09;13.80;99.90
58261;DHT22;44058;52.898;6.502;2022-10-31T00:37:35;13.80;99.90
58261;DHT22;44058;52.898;6.502;2022-10-31T00:40:01;13.70;99.90
58261;DHT22;44058;52.898;6.502;2022-10-31T00:42:27;13.70;99.90
58261;DHT22;44058;52.898;6.502;2022-10-31T00:44:52;13.70;99.90
58261;DHT22;44058;52.898;6.502;2022-10-31T00:47:18;13.60;99.90
58261;DHT22;44058;52.898;6.502;2022-10-31T00:49:44;13.60;99.90
58261;DHT22;44058;52.898;6.502;2022-10-31T00:52:09;13.50;99.90
58261;DHT22;44058;52.898;6.502;2022-10-31T00:54:35;13.50;99.90
58261;DHT22;44058;52.898;6.502;2022-10-31T00:57:01;13.50;99.90
58261;DHT22;44058;52.898;6.502;2022-10-31T00:59:27;13.50;99.90
58261;DHT22;44058;52.898;6.502;2022-10-31T01:01:53;13.50;99.90
58261;DHT22;44058;52.898;6.502;2022-10-31T01:04:18;13.50;99.90
58261;DHT22;44058;52.898;6.502;2022-10-31T01:06:44;13.50;99.90
58261;DHT22;44058;52.898;6.502;2022-10-31T01:09:09;13.50;99.90
58261;DHT22;44058;52.898;6.502;2022-10-31T01:11:35;13.50;99.90
58261;DHT22;44058;52.898;6.502;2022-10-31T01:14:01;13.40;99.90
58261;DHT22;44058;52.898;6.502;2022-10-31T01:16:27;13.40;99.90
58261;DHT22;44058;52.898;6.502;2022-10-31T01:18:54;13.40;99.90
58261;DHT22;44058;52.898;6.502;2022-10-31T01:21:25;13.40;99.90
58261;DHT22;44058;52.898;6.502;2022-10-31T01:23:53;13.40;99.90
58261;DHT22;44058;52.898;6.502;2022-10-31T01:26:27;13.40;99.90
58261;DHT22;44058;52.898;6.502;2022-10-31T01:29:02;13.40;99.90
58261;DHT22;44058;52.898;6.502;2022-10-31T01:31:31;13.30;99.90
58261;DHT22;44058;52.898;6.502;2022-10-31T01:33:57;13.30;99.90
58261;DHT22;44058;52.898;6.502;2022-10-31T01:36:24;13.30;99.90
58261;DHT22;44058;52.898;6.502;2022-10-31T01:38:52;13.30;99.90
58261;DHT22;44058;52.898;6.502;2022-10-31T01:41:21;13.30;99.90
58261;DHT22;44058;52.898;6.502;2022-10-31T01:43:48;13.30;99.90
58261;DHT22;44058;52.898;6.502;2022-10-31T01:46:17;13.30;99.90
58261;DHT22;44058;52.898;6.502;2022-10-31T01:48:45;13.30;99.90
58261;DHT22;44058;52.898;6.502;2022-10-31T01:51:12;13.30;99.90
58261;DHT22;44058;52.898;6.502;2022-10-31T01:53:40;13.30;99.90
58261;DHT22;44058;52.898;6.502;2022-10-31T01:56:07;13.20;99.90
58261;DHT22;44058;52.898;6.502;2022-10-31T01:58:34;13.30;99.90
58261;DHT22;44058;52.898;6.502;2022-10-31T02:01:01;13.20;99.90
58261;DHT22;44058;52.898;6.502;2022-10-31T02:03:28;13.20;99.90
58261;DHT22;44058;52.898;6.502;2022-10-31T02:05:55;13.10;99.90
58261;DHT22;44058;52.898;6.502;2022-10-31T02:08:29;13.00;99.90
58261;DHT22;44058;52.898;6.502;2022-10-31T02:10:56;13.00;99.90
58261;DHT22;44058;52.898;6.502;2022-10-31T02:13:23;12.90;99.90
58261;DHT22;44058;52.898;6.502;2022-10-31T02:15:52;12.90;99.90
58261;DHT22;44058;52.898;6.502;2022-10-31T02:18:18;12.80;99.90
58261;DHT22;44058;52.898;6.502;2022-10-31T02:36:58;12.60;99.90
58261;DHT22;44058;52.898;6.502;2022-10-31T02:39:38;12.70;99.90
58261;DHT22;44058;52.898;6.502;2022-10-31T02:43:17;12.70;99.90
58261;DHT22;44058;52.898;6.502;2022-10-31T02:45:09;12.70;99.90
58261;DHT22;44058;52.898;6.502;2022-10-31T02:47:38;12.60;99.90
58261;DHT22;44058;52.898;6.502;2022-10-31T02:50:18;12.70;99.90
58261;DHT22;44058;52.898;6.502;2022-10-31T02:52:44;12.70;99.90
58261;DHT22;44058;52.898;6.502;2022-10-31T02:58:11;12.70;99.90
58261;DHT22;44058;52.898;6.502;2022-10-31T03:06:08;12.70;99.90
58261;DHT22;44058;52.898;6.502;2022-10-31T03:08:59;12.70;99.90
58261;DHT22;44058;52.898;6.502;2022-10-31T03:11:32;12.70;99.90
58261;DHT22;44058;52.898;6.502;2022-10-31T03:14:56;12.70;99.90
58261;DHT22;44058;52.898;6.502;2022-10-31T03:16:54;12.70;99.90
58261;DHT22;44058;52.898;6.502;2022-10-31T03:19:25;12.60;99.90
58261;DHT22;44058;52.898;6.502;2022-10-31T03:21:53;12.50;99.90
58261;DHT22;44058;52.898;6.502;2022-10-31T03:24:25;12.40;99.90
58261;DHT22;44058;52.898;6.502;2022-10-31T03:26:55;12.40;99.90
58261;DHT22;44058;52.898;6.502;2022-10-31T03:29:26;12.40;99.90
58261;DHT22;44058;52.898;6.502;2022-10-31T03:32:02;12.30;99.90
58261;DHT22;44058;52.898;6.502;2022-10-31T03:34:30;12.30;99.90
58261;DHT22;44058;52.898;6.502;2022-10-31T03:37:00;12.30;99.90
58261;DHT22;44058;52.898;6.502;2022-10-31T03:39:28;12.20;99.90
58261;DHT22;44058;52.898;6.502;2022-10-31T03:42:10;12.10;99.90
58261;DHT22;44058;52.898;6.502;2022-10-31T03:44:39;12.00;99.90
58261;DHT22;44058;52.898;6.502;2022-10-31T03:47:06;12.00;99.90
58261;DHT22;44058;52.898;6.502;2022-10-31T03:49:33;11.90;99.90
58261;DHT22;44058;52.898;6.502;2022-10-31T03:52:12;11.90;99.90
58261;DHT22;44058;52.898;6.502;2022-10-31T03:54:47;11.80;99.90
58261;DHT22;44058;52.898;6.502;2022-10-31T03:57:44;11.80;99.90
58261;DHT22;44058;52.898;6.502;2022-10-31T04:00:13;11.80;99.90
58261;DHT22;44058;52.898;6.502;2022-10-31T04:02:42;11.80;99.90
58261;DHT22;44058;52.898;6.502;2022-10-31T04:05:10;11.90;99.90
58261;DHT22;44058;52.898;6.502;2022-10-31T04:07:41;11.80;99.90
58261;DHT22;44058;52.898;6.502;2022-10-31T04:10:11;11.80;99.90
58261;DHT22;44058;52.898;6.502;2022-10-31T04:12:39;11.80;99.90
58261;DHT22;44058;52.898;6.502;2022-10-31T04:15:06;11.70;99.90
58261;DHT22;44058;52.898;6.502;2022-10-31T04:17:36;11.60;99.90
58261;DHT22;44058;52.898;6.502;2022-10-31T04:20:03;11.60;99.90
58261;DHT22;44058;52.898;6.502;2022-10-31T04:22:29;11.60;99.90
58261;DHT22;44058;52.898;6.502;2022-10-31T04:24:55;11.60;99.90
58261;DHT22;44058;52.898;6.502;2022-10-31T04:27:20;11.60;99.90
58261;DHT22;44058;52.898;6.502;2022-10-31T04:29:46;11.70;99.90
58261;DHT22;44058;52.898;6.502;2022-10-31T04:32:12;11.70;99.90
58261;DHT22;44058;52.898;6.502;2022-10-31T04:34:37;11.70;99.90
58261;DHT22;44058;52.898;6.502;2022-10-31T04:37:03;11.60;99.90
58261;DHT22;44058;52.898;6.502;2022-10-31T04:39:29;11.50;99.90
58261;DHT22;44058;52.898;6.502;2022-10-31T04:41:54;11.50;99.90
58261;DHT22;44058;52.898;6.502;2022-10-31T04:44:20;11.40;99.90
58261;DHT22;44058;52.898;6.502;2022-10-31T04:46:46;11.40;99.90
58261;DHT22;44058;52.898;6.502;2022-10-31T04:49:11;11.40;99.90
58261;DHT22;44058;52.898;6.502;2022-10-31T04:51:37;11.40;99.90
58261;DHT22;44058;52.898;6.502;2022-10-31T04:54:03;11.30;99.90
58261;DHT22;44058;52.898;6.502;2022-10-31T04:56:29;11.30;99.90
58261;DHT22;44058;52.898;6.502;2022-10-31T04:58:54;11.30;99.90
58261;DHT22;44058;52.898;6.502;2022-10-31T05:01:20;11.30;99.90
58261;DHT22;44058;52.898;6.502;2022-10-31T05:03:45;11.30;99.90
58261;DHT22;44058;52.898;6.502;2022-10-31T05:06:12;11.30;99.90
58261;DHT22;44058;52.898;6.502;2022-10-31T05:08:38;11.30;99.90
58261;DHT22;44058;52.898;6.502;2022-10-31T05:11:04;11.30;99.90
58261;DHT22;44058;52.898;6.502;2022-10-31T05:13:30;11.30;99.90
58261;DHT22;44058;52.898;6.502;2022-10-31T05:15:56;11.30;99.90
58261;DHT22;44058;52.898;6.502;2022-10-31T05:18:22;11.20;99.90
58261;DHT22;44058;52.898;6.502;2022-10-31T05:20:48;11.20;99.90
58261;DHT22;44058;52.898;6.502;2022-10-31T05:23:14;11.10;99.90
58261;DHT22;44058;52.898;6.502;2022-10-31T05:25:40;11.00;99.90
58261;DHT22;44058;52.898;6.502;2022-10-31T05:28:06;10.90;99.90
58261;DHT22;44058;52.898;6.502;2022-10-31T05:30:34;10.80;99.90
58261;DHT22;44058;52.898;6.502;2022-10-31T05:33:00;10.60;99.90
58261;DHT22;44058;52.898;6.502;2022-10-31T05:35:31;10.50;99.90
58261;DHT22;44058;52.898;6.502;2022-10-31T05:37:58;10.50;99.90
58261;DHT22;44058;52.898;6.502;2022-10-31T05:40:25;10.50;99.90
58261;DHT22;44058;52.898;6.502;2022-10-31T05:42:53;10.50;99.90
58261;DHT22;44058;52.898;6.502;2022-10-31T05:45:20;10.60;99.90
58261;DHT22;44058;52.898;6.502;2022-10-31T05:48:00;10.60;99.90
58261;DHT22;44058;52.898;6.502;2022-10-31T05:50:27;10.60;99.90
58261;DHT22;44058;52.898;6.502;2022-10-31T05:53:01;10.60;99.90
58261;DHT22;44058;52.898;6.502;2022-10-31T05:55:28;10.50;99.90
58261;DHT22;44058;52.898;6.502;2022-10-31T05:57:55;10.50;99.90
58261;DHT22;44058;52.898;6.502;2022-10-31T06:00:21;10.40;99.90
58261;DHT22;44058;52.898;6.502;2022-10-31T06:02:48;10.40;99.90
58261;DHT22;44058;52.898;6.502;2022-10-31T06:05:14;10.30;99.90
58261;DHT22;44058;52.898;6.502;2022-10-31T06:07:41;10.40;99.90
58261;DHT22;44058;52.898;6.502;2022-10-31T06:10:07;10.40;99.90
58261;DHT22;44058;52.898;6.502;2022-10-31T06:12:34;10.40;99.90
58261;DHT22;44058;52.898;6.502;2022-10-31T06:15:06;10.40;99.90
58261;DHT22;44058;52.898;6.502;2022-10-31T06:17:33;10.50;99.90
58261;DHT22;44058;52.898;6.502;2022-10-31T06:19:59;10.40;99.90
58261;DHT22;44058;52.898;6.502;2022-10-31T06:22:25;10.30;99.90
58261;DHT22;44058;52.898;6.502;2022-10-31T06:24:50;10.20;99.90
58261;DHT22;44058;52.898;6.502;2022-10-31T06:27:16;10.20;99.90
58261;DHT22;44058;52.898;6.502;2022-10-31T06:29:42;10.10;99.90
58261;DHT22;44058;52.898;6.502;2022-10-31T06:32:11;10.10;99.90
58261;DHT22;44058;52.898;6.502;2022-10-31T06:34:38;10.20;99.90
58261;DHT22;44058;52.898;6.502;2022-10-31T06:37:06;10.20;99.90
58261;DHT22;44058;52.898;6.502;2022-10-31T06:39:32;10.30;99.90
58261;DHT22;44058;52.898;6.502;2022-10-31T06:41:58;10.20;99.90
58261;DHT22;44058;52.898;6.502;2022-10-31T06:44:23;10.20;99.90
58261;DHT22;44058;52.898;6.502;2022-10-31T06:46:49;10.20;99.90
58261;DHT22;44058;52.898;6.502;2022-10-31T06:49:15;10.20;99.90
58261;DHT22;44058;52.898;6.502;2022-10-31T06:51:41;10.20;99.90
58261;DHT22;44058;52.898;6.502;2022-10-31T06:54:07;10.20;99.90
58261;DHT22;44058;52.898;6.502;2022-10-31T06:56:32;10.20;99.90
58261;DHT22;44058;52.898;6.502;2022-10-31T06:58:58;10.20;99.90
58261;DHT22;44058;52.898;6.502;2022-10-31T07:01:24;10.10;99.90
58261;DHT22;44058;52.898;6.502;2022-10-31T07:03:49;10.10;99.90
58261;DHT22;44058;52.898;6.502;2022-10-31T07:06:15;10.00;99.90
58261;DHT22;44058;52.898;6.502;2022-10-31T07:08:41;10.00;99.90
58261;DHT22;44058;52.898;6.502;2022-10-31T07:11:07;9.90;99.90
58261;DHT22;44058;52.898;6.502;2022-10-31T07:13:33;9.90;99.90
58261;DHT22;44058;52.898;6.502;2022-10-31T07:16:03;10.00;99.90
58261;DHT22;44058;52.898;6.502;2022-10-31T07:18:29;10.00;99.90
58261;DHT22;44058;52.898;6.502;2022-10-31T07:20:55;10.00;99.90
58261;DHT22;44058;52.898;6.502;2022-10-31T07:23:21;10.00;99.90
58261;DHT22;44058;52.898;6.502;2022-10-31T07:25:47;10.00;99.90
58261;DHT22;44058;52.898;6.502;2022-10-31T07:28:13;10.00;99.90
58261;DHT22;44058;52.898;6.502;2022-10-31T07:30:39;10.00;99.90
58261;DHT22;44058;52.898;6.502;2022-10-31T07:33:05;10.00;99.90
58261;DHT22;44058;52.898;6.502;2022-10-31T07:35:32;10.00;99.90
58261;DHT22;44058;52.898;6.502;2022-10-31T07:38:07;10.00;99.90
58261;DHT22;44058;52.898;6.502;2022-10-31T07:40:34;10.00;99.90
58261;DHT22;44058;52.898;6.502;2022-10-31T07:43:00;10.00;99.90
58261;DHT22;44058;52.898;6.502;2022-10-31T07:45:25;10.00;99.90
58261;DHT22;44058;52.898;6.502;2022-10-31T07:47:52;10.10;99.90
58261;DHT22;44058;52.898;6.502;2022-10-31T07:50:26;10.10;99.90
58261;DHT22;44058;52.898;6.502;2022-10-31T07:53:04;10.10;99.90
58261;DHT22;44058;52.898;6.502;2022-10-31T07:55:30;10.20;99.90
58261;DHT22;44058;52.898;6.502;2022-10-31T07:58:00;10.20;99.90
58261;DHT22;44058;52.898;6.502;2022-10-31T08:00:27;10.30;99.90
58261;DHT22;44058;52.898;6.502;2022-10-31T08:02:59;10.40;99.90
58261;DHT22;44058;52.898;6.502;2022-10-31T08:05:25;10.50;99.90
58261;DHT22;44058;52.898;6.502;2022-10-31T08:07:51;10.50;99.90
58261;DHT22;44058;52.898;6.502;2022-10-31T08:10:17;10.60;99.90
58261;DHT22;44058;52.898;6.502;2022-10-31T08:12:43;10.60;99.90
58261;DHT22;44058;52.898;6.502;2022-10-31T08:15:09;10.70;99.90
58261;DHT22;44058;52.898;6.502;2022-10-31T08:17:36;10.80;99.90
58261;DHT22;44058;52.898;6.502;2022-10-31T08:20:02;10.80;99.90
58261;DHT22;44058;52.898;6.502;2022-10-31T08:22:28;10.90;99.90
58261;DHT22;44058;52.898;6.502;2022-10-31T08:24:54;11.00;99.90
58261;DHT22;44058;52.898;6.502;2022-10-31T08:27:19;11.10;99.90
58261;DHT22;44058;52.898;6.502;2022-10-31T08:29:45;11.20;99.90
58261;DHT22;44058;52.898;6.502;2022-10-31T08:32:11;11.30;99.90
58261;DHT22;44058;52.898;6.502;2022-10-31T08:34:36;11.40;99.90
58261;DHT22;44058;52.898;6.502;2022-10-31T08:37:02;11.40;99.90
58261;DHT22;44058;52.898;6.502;2022-10-31T08:39:28;11.50;99.90
58261;DHT22;44058;52.898;6.502;2022-10-31T08:41:54;11.60;99.90
58261;DHT22;44058;52.898;6.502;2022-10-31T08:44:19;11.60;99.90
58261;DHT22;44058;52.898;6.502;2022-10-31T08:46:45;11.70;99.90
58261;DHT22;44058;52.898;6.502;2022-10-31T08:49:11;11.80;99.90
58261;DHT22;44058;52.898;6.502;2022-10-31T08:51:36;11.80;99.90
58261;DHT22;44058;52.898;6.502;2022-10-31T08:54:02;11.80;99.90
58261;DHT22;44058;52.898;6.502;2022-10-31T08:56:28;11.90;99.90
58261;DHT22;44058;52.898;6.502;2022-10-31T08:58:54;11.90;99.90
58261;DHT22;44058;52.898;6.502;2022-10-31T09:01:19;11.90;99.90
58261;DHT22;44058;52.898;6.502;2022-10-31T09:03:45;11.90;99.90
58261;DHT22;44058;52.898;6.502;2022-10-31T09:06:10;11.90;99.90
58261;DHT22;44058;52.898;6.502;2022-10-31T09:08:36;11.90;99.90
58261;DHT22;44058;52.898;6.502;2022-10-31T09:11:04;12.00;99.90
58261;DHT22;44058;52.898;6.502;2022-10-31T09:13:30;12.00;99.90
58261;DHT22;44058;52.898;6.502;2022-10-31T09:15:56;11.90;99.90
58261;DHT22;44058;52.898;6.502;2022-10-31T09:18:25;12.00;99.90
58261;DHT22;44058;52.898;6.502;2022-10-31T09:20:53;12.00;99.90
58261;DHT22;44058;52.898;6.502;2022-10-31T09:23:21;12.00;99.90
58261;DHT22;44058;52.898;6.502;2022-10-31T09:25:48;12.00;99.90
58261;DHT22;44058;52.898;6.502;2022-10-31T09:28:18;12.10;99.90
58261;DHT22;44058;52.898;6.502;2022-10-31T09:30:45;12.10;99.90
58261;DHT22;44058;52.898;6.502;2022-10-31T09:33:12;12.10;99.90
58261;DHT22;44058;52.898;6.502;2022-10-31T09:35:39;12.20;99.90
58261;DHT22;44058;52.898;6.502;2022-10-31T09:38:17;12.20;99.90
58261;DHT22;44058;52.898;6.502;2022-10-31T09:40:54;12.30;99.90
58261;DHT22;44058;52.898;6.502;2022-10-31T09:46:20;12.40;99.90
58261;DHT22;44058;52.898;6.502;2022-10-31T09:51:50;12.60;99.90
58261;DHT22;44058;52.898;6.502;2022-10-31T09:57:17;13.00;99.90
58261;DHT22;44058;52.898;6.502;2022-10-31T09:59:44;13.10;99.90
58261;DHT22;44058;52.898;6.502;2022-10-31T10:05:08;13.20;99.90
58261;DHT22;44058;52.898;6.502;2022-10-31T10:07:38;13.20;99.90
58261;DHT22;44058;52.898;6.502;2022-10-31T10:13:22;13.20;99.90
58261;DHT22;44058;52.898;6.502;2022-10-31T10:26:38;13.50;99.90
58261;DHT22;44058;52.898;6.502;2022-10-31T10:31:40;13.60;99.90
58261;DHT22;44058;52.898;6.502;2022-10-31T10:34:31;13.70;99.90
58261;DHT22;44058;52.898;6.502;2022-10-31T10:37:07;13.80;99.90
58261;DHT22;44058;52.898;6.502;2022-10-31T10:39:43;13.90;99.90
58261;DHT22;44058;52.898;6.502;2022-10-31T10:42:14;14.00;99.90
58261;DHT22;44058;52.898;6.502;2022-10-31T10:45:06;14.00;99.90
58261;DHT22;44058;52.898;6.502;2022-10-31T10:48:05;14.20;99.90
58261;DHT22;44058;52.898;6.502;2022-10-31T10:50:37;14.20;99.90
58261;DHT22;44058;52.898;6.502;2022-10-31T10:53:25;14.30;99.90
58261;DHT22;44058;52.898;6.502;2022-10-31T10:56:18;14.40;99.90
58261;DHT22;44058;52.898;6.502;2022-10-31T10:58:46;14.50;99.90
58261;DHT22;44058;52.898;6.502;2022-10-31T11:01:14;14.50;99.90
58261;DHT22;44058;52.898;6.502;2022-10-31T11:03:40;14.60;99.90
58261;DHT22;44058;52.898;6.502;2022-10-31T11:06:17;14.60;99.90
58261;DHT22;44058;52.898;6.502;2022-10-31T11:08:43;14.70;99.90
58261;DHT22;44058;52.898;6.502;2022-10-31T11:13:46;14.80;99.90
58261;DHT22;44058;52.898;6.502;2022-10-31T11:16:15;14.90;99.90
58261;DHT22;44058;52.898;6.502;2022-10-31T11:18:52;14.90;99.90
58261;DHT22;44058;52.898;6.502;2022-10-31T11:21:25;15.00;99.90
58261;DHT22;44058;52.898;6.502;2022-10-31T11:26:34;15.00;99.90
58261;DHT22;44058;52.898;6.502;2022-10-31T11:29:01;15.00;99.90
58261;DHT22;44058;52.898;6.502;2022-10-31T11:31:29;15.10;99.90
58261;DHT22;44058;52.898;6.502;2022-10-31T11:34:03;15.00;99.90
58261;DHT22;44058;52.898;6.502;2022-10-31T11:36:42;15.00;99.90
58261;DHT22;44058;52.898;6.502;2022-10-31T11:39:22;15.10;99.90
58261;DHT22;44058;52.898;6.502;2022-10-31T11:41:49;15.10;99.90
58261;DHT22;44058;52.898;6.502;2022-10-31T11:46:46;15.20;99.90
58261;DHT22;44058;52.898;6.502;2022-10-31T11:52:21;15.10;99.90
58261;DHT22;44058;52.898;6.502;2022-10-31T11:57:31;15.10;99.90
58261;DHT22;44058;52.898;6.502;2022-10-31T11:59:59;15.10;99.90
58261;DHT22;44058;52.898;6.502;2022-10-31T12:02:26;15.10;99.90
58261;DHT22;44058;52.898;6.502;2022-10-31T12:05:08;15.20;99.90
58261;DHT22;44058;52.898;6.502;2022-10-31T12:07:36;15.30;99.90
58261;DHT22;44058;52.898;6.502;2022-10-31T12:10:10;15.30;99.90
58261;DHT22;44058;52.898;6.502;2022-10-31T12:13:02;15.30;99.90
58261;DHT22;44058;52.898;6.502;2022-10-31T12:15:34;15.30;99.90
58261;DHT22;44058;52.898;6.502;2022-10-31T12:18:22;15.30;99.90
58261;DHT22;44058;52.898;6.502;2022-10-31T12:21:03;15.40;99.90
58261;DHT22;44058;52.898;6.502;2022-10-31T12:26:45;15.40;99.90
58261;DHT22;44058;52.898;6.502;2022-10-31T12:29:23;15.50;99.90
58261;DHT22;44058;52.898;6.502;2022-10-31T12:35:06;15.50;99.90
58261;DHT22;44058;52.898;6.502;2022-10-31T12:38:47;15.50;99.90
58261;DHT22;44058;52.898;6.502;2022-10-31T12:51:43;15.50;99.90
58261;DHT22;44058;52.898;6.502;2022-10-31T12:54:24;15.50;99.90
58261;DHT22;44058;52.898;6.502;2022-10-31T12:57:13;15.40;99.90
58261;DHT22;44058;52.898;6.502;2022-10-31T12:59:47;15.40;99.90
58261;DHT22;44058;52.898;6.502;2022-10-31T13:02:21;15.40;99.90
58261;DHT22;44058;52.898;6.502;2022-10-31T13:04:53;15.50;99.90
58261;DHT22;44058;52.898;6.502;2022-10-31T13:10:18;15.70;99.90
58261;DHT22;44058;52.898;6.502;2022-10-31T13:12:46;15.80;99.90
58261;DHT22;44058;52.898;6.502;2022-10-31T13:15:19;15.80;99.90
58261;DHT22;44058;52.898;6.502;2022-10-31T13:17:50;15.90;99.90
58261;DHT22;44058;52.898;6.502;2022-10-31T13:22:56;16.10;99.90
58261;DHT22;44058;52.898;6.502;2022-10-31T13:25:28;16.20;99.90
58261;DHT22;44058;52.898;6.502;2022-10-31T13:28:05;16.20;99.90
58261;DHT22;44058;52.898;6.502;2022-10-31T13:30:38;16.20;99.90
58261;DHT22;44058;52.898;6.502;2022-10-31T13:35:55;16.10;99.90
58261;DHT22;44058;52.898;6.502;2022-10-31T13:41:00;16.00;99.90
58261;DHT22;44058;52.898;6.502;2022-10-31T13:43:48;16.00;99.90
58261;DHT22;44058;52.898;6.502;2022-10-31T13:46:25;16.00;99.90
58261;DHT22;44058;52.898;6.502;2022-10-31T13:48:51;15.90;99.90
58261;DHT22;44058;52.898;6.502;2022-10-31T13:51:26;15.90;99.90
58261;DHT22;44058;52.898;6.502;2022-10-31T13:56:28;15.90;99.90
58261;DHT22;44058;52.898;6.502;2022-10-31T14:01:34;15.80;99.90
58261;DHT22;44058;52.898;6.502;2022-10-31T14:04:25;15.80;99.90
58261;DHT22;44058;52.898;6.502;2022-10-31T14:07:05;15.80;99.90
58261;DHT22;44058;52.898;6.502;2022-10-31T14:09:55;15.80;99.90
58261;DHT22;44058;52.898;6.502;2022-10-31T14:12:34;15.80;99.90
58261;DHT22;44058;52.898;6.502;2022-10-31T14:20:25;15.80;99.90
58261;DHT22;44058;52.898;6.502;2022-10-31T14:22:51;15.80;99.90
58261;DHT22;44058;52.898;6.502;2022-10-31T14:25:35;15.80;99.90
58261;DHT22;44058;52.898;6.502;2022-10-31T14:28:05;15.80;99.90
58261;DHT22;44058;52.898;6.502;2022-10-31T14:30:55;15.70;99.90
58261;DHT22;44058;52.898;6.502;2022-10-31T14:33:24;15.70;99.90
58261;DHT22;44058;52.898;6.502;2022-10-31T14:36:00;15.70;99.90
58261;DHT22;44058;52.898;6.502;2022-10-31T14:38:53;15.70;99.90
58261;DHT22;44058;52.898;6.502;2022-10-31T14:41:40;15.70;99.90
58261;DHT22;44058;52.898;6.502;2022-10-31T14:47:47;15.60;99.90
58261;DHT22;44058;52.898;6.502;2022-10-31T14:50:23;15.60;99.90
58261;DHT22;44058;52.898;6.502;2022-10-31T14:52:53;15.60;99.90
58261;DHT22;44058;52.898;6.502;2022-10-31T14:55:21;15.50;99.90
58261;DHT22;44058;52.898;6.502;2022-10-31T14:58:03;15.50;99.90
58261;DHT22;44058;52.898;6.502;2022-10-31T15:00:31;15.50;99.90
58261;DHT22;44058;52.898;6.502;2022-10-31T15:05:49;15.40;99.90
58261;DHT22;44058;52.898;6.502;2022-10-31T15:08:34;15.40;99.90
58261;DHT22;44058;52.898;6.502;2022-10-31T15:11:21;15.40;99.90
58261;DHT22;44058;52.898;6.502;2022-10-31T15:13:53;15.30;99.90
58261;DHT22;44058;52.898;6.502;2022-10-31T15:18:54;15.30;99.90
58261;DHT22;44058;52.898;6.502;2022-10-31T15:21:23;15.40;99.90
58261;DHT22;44058;52.898;6.502;2022-10-31T15:23:52;15.30;99.90
58261;DHT22;44058;52.898;6.502;2022-10-31T15:26:20;15.30;99.90
58261;DHT22;44058;52.898;6.502;2022-10-31T15:29:04;15.20;99.90
58261;DHT22;44058;52.898;6.502;2022-10-31T15:31:31;15.20;99.90
58261;DHT22;44058;52.898;6.502;2022-10-31T15:34:02;15.20;99.90
58261;DHT22;44058;52.898;6.502;2022-10-31T15:36:28;15.10;99.90
58261;DHT22;44058;52.898;6.502;2022-10-31T15:38:55;15.00;99.90
58261;DHT22;44058;52.898;6.502;2022-10-31T15:43:50;15.00;99.90
58261;DHT22;44058;52.898;6.502;2022-10-31T15:46:16;15.00;99.90
58261;DHT22;44058;52.898;6.502;2022-10-31T15:48:46;15.00;99.90
58261;DHT22;44058;52.898;6.502;2022-10-31T15:51:13;15.00;99.90
58261;DHT22;44058;52.898;6.502;2022-10-31T15:53:43;14.90;99.90
58261;DHT22;44058;52.898;6.502;2022-10-31T15:56:13;14.90;99.90
58261;DHT22;44058;52.898;6.502;2022-10-31T15:58:46;14.80;99.90
58261;DHT22;44058;52.898;6.502;2022-10-31T16:01:23;14.80;99.90
58261;DHT22;44058;52.898;6.502;2022-10-31T16:06:26;14.70;99.90
58261;DHT22;44058;52.898;6.502;2022-10-31T16:08:51;14.70;99.90
58261;DHT22;44058;52.898;6.502;2022-10-31T16:14:04;14.60;99.90
58261;DHT22;44058;52.898;6.502;2022-10-31T16:16:34;14.60;99.90
58261;DHT22;44058;52.898;6.502;2022-10-31T16:19:05;14.50;99.90
58261;DHT22;44058;52.898;6.502;2022-10-31T16:21:39;14.50;99.90
58261;DHT22;44058;52.898;6.502;2022-10-31T16:24:18;14.50;99.90
58261;DHT22;44058;52.898;6.502;2022-10-31T16:26:52;14.40;99.90
58261;DHT22;44058;52.898;6.502;2022-10-31T16:29:42;14.40;99.90
58261;DHT22;44058;52.898;6.502;2022-10-31T16:32:30;14.50;99.90
58261;DHT22;44058;52.898;6.502;2022-10-31T16:37:38;14.40;99.90
58261;DHT22;44058;52.898;6.502;2022-10-31T16:40:04;14.40;99.90
58261;DHT22;44058;52.898;6.502;2022-10-31T16:42:30;14.40;99.90
58261;DHT22;44058;52.898;6.502;2022-10-31T16:44:55;14.40;99.90
58261;DHT22;44058;52.898;6.502;2022-10-31T16:47:21;14.40;99.90
58261;DHT22;44058;52.898;6.502;2022-10-31T16:49:48;14.40;99.90
58261;DHT22;44058;52.898;6.502;2022-10-31T16:52:16;14.40;99.90
58261;DHT22;44058;52.898;6.502;2022-10-31T16:54:41;14.40;99.90
58261;DHT22;44058;52.898;6.502;2022-10-31T16:57:13;14.30;99.90
58261;DHT22;44058;52.898;6.502;2022-10-31T16:59:39;14.40;99.90
58261;DHT22;44058;52.898;6.502;2022-10-31T17:02:12;14.30;99.90
58261;DHT22;44058;52.898;6.502;2022-10-31T17:04:39;14.30;99.90
58261;DHT22;44058;52.898;6.502;2022-10-31T17:07:04;14.30;99.90
58261;DHT22;44058;52.898;6.502;2022-10-31T17:09:30;14.40;99.90
58261;DHT22;44058;52.898;6.502;2022-10-31T17:11:56;14.30;99.90
58261;DHT22;44058;52.898;6.502;2022-10-31T17:14:21;14.40;99.90
58261;DHT22;44058;52.898;6.502;2022-10-31T17:16:47;14.40;99.90
58261;DHT22;44058;52.898;6.502;2022-10-31T17:19:13;14.40;99.90
58261;DHT22;44058;52.898;6.502;2022-10-31T17:21:39;14.40;99.90
58261;DHT22;44058;52.898;6.502;2022-10-31T17:24:06;14.40;99.90
58261;DHT22;44058;52.898;6.502;2022-10-31T17:26:32;14.40;99.90
58261;DHT22;44058;52.898;6.502;2022-10-31T17:28:57;14.40;99.90
58261;DHT22;44058;52.898;6.502;2022-10-31T17:31:28;14.40;99.90
58261;DHT22;44058;52.898;6.502;2022-10-31T17:33:55;14.40;99.90
58261;DHT22;44058;52.898;6.502;2022-10-31T17:36:21;14.40;99.90
58261;DHT22;44058;52.898;6.502;2022-10-31T17:38:47;14.40;99.90
58261;DHT22;44058;52.898;6.502;2022-10-31T17:41:13;14.40;99.90
58261;DHT22;44058;52.898;6.502;2022-10-31T17:43:38;14.40;99.90
58261;DHT22;44058;52.898;6.502;2022-10-31T17:46:05;14.40;99.90
58261;DHT22;44058;52.898;6.502;2022-10-31T17:48:35;14.40;99.90
58261;DHT22;44058;52.898;6.502;2022-10-31T17:51:02;14.40;99.90